Time;durP1;ratioP1;P1;durP2;ratioP2;P2;SDS_P1;SDS_P2;PMS_P1;PMS_P2;Temp;Humidity;BMP_temperature;BMP_pressure;BME280_temperature;BME280_humidity;BME280_pressure;Samples;Min_cycle;Max_cycle;Signal;HPM_P1;HPM_P2
2022/05/15 00:01:23;;;;;;;5.72;4.00;;;;;;;19.79;nan;-24367.63;5071209;28;20224;-75
2022/05/15 00:03:49;;;;;;;5.50;3.65;;;;;;;20.02;nan;-24374.00;5071394;28;20181;-75
2022/05/15 00:06:15;;;;;;;8.88;4.60;;;;;;;19.89;nan;-24370.41;5070729;28;20201;-75
2022/05/15 00:08:40;;;;;;;6.38;3.92;;;;;;;19.94;nan;-24371.66;5068382;28;20181;-75
2022/05/15 00:11:12;;;;;;;7.05;4.60;;;;;;;20.16;nan;-24377.75;5070116;28;20197;-75
2022/05/15 00:13:39;;;;;;;4.80;3.67;;;;;;;19.90;nan;-24370.53;5071395;28;20907;-75
2022/05/15 00:16:06;;;;;;;5.95;3.92;;;;;;;20.16;nan;-24377.91;5069973;28;20186;-75
2022/05/15 00:18:31;;;;;;;6.90;4.82;;;;;;;20.08;nan;-24375.69;5071649;28;20226;-76
2022/05/15 00:20:57;;;;;;;5.78;3.92;;;;;;;20.08;nan;-24375.53;5072556;28;20186;-76
2022/05/15 00:23:24;;;;;;;7.15;4.40;;;;;;;20.01;nan;-24373.72;5075348;28;20226;-76
2022/05/15 00:25:50;;;;;;;5.97;4.10;;;;;;;19.77;nan;-24367.19;5069734;28;20188;-76
2022/05/15 00:28:16;;;;;;;5.35;3.72;;;;;;;19.83;nan;-24368.88;5070496;28;20178;-74
2022/05/15 00:30:42;;;;;;;4.60;3.47;;;;;;;20.03;nan;-24374.16;5069283;28;20178;-75
2022/05/15 00:33:08;;;;;;;6.22;4.38;;;;;;;20.08;nan;-24375.69;5069691;28;20226;-75
2022/05/15 00:35:35;;;;;;;6.97;4.00;;;;;;;19.91;nan;-24370.97;5070197;28;20613;-75
2022/05/15 00:38:03;;;;;;;6.18;4.18;;;;;;;20.07;nan;-24375.25;5070761;28;20205;-75
2022/05/15 00:40:29;;;;;;;5.93;4.18;;;;;;;20.12;nan;-24376.78;5068007;28;20201;-75
2022/05/15 00:42:54;;;;;;;6.13;4.25;;;;;;;19.88;nan;-24369.97;5069880;28;20190;-74
2022/05/15 00:45:22;;;;;;;5.70;3.88;;;;;;;19.96;nan;-24372.34;5071214;28;20268;-74
2022/05/15 00:47:48;;;;;;;5.97;4.32;;;;;;;19.94;nan;-24371.78;5070078;28;20193;-74
2022/05/15 00:50:19;;;;;;;5.32;3.83;;;;;;;19.81;nan;-24368.19;5068488;28;20184;-75
2022/05/15 00:52:49;;;;;;;6.05;4.20;;;;;;;19.90;nan;-24370.69;5069486;28;20273;-74
2022/05/15 00:55:43;;;;;;;5.63;3.83;;;;;;;19.98;nan;-24372.75;5071429;28;20248;-75
2022/05/15 00:58:31;;;;;;;6.10;4.05;;;;;;;19.84;nan;-24369.00;5067897;28;20292;-75
2022/05/15 01:00:57;;;;;;;6.63;4.00;;;;;;;19.65;nan;-24363.72;5067733;28;22450;-74
2022/05/15 01:03:23;;;;;;;6.15;4.18;;;;;;;19.46;nan;-24358.59;5068448;28;20185;-76
2022/05/15 01:05:52;;;;;;;6.18;3.83;;;;;;;19.62;nan;-24362.91;5068807;28;20598;-75
2022/05/15 01:08:18;;;;;;;5.63;3.97;;;;;;;19.41;nan;-24357.19;5067614;28;20181;-75
2022/05/15 01:10:48;;;;;;;7.90;4.25;;;;;;;19.74;nan;-24366.22;5068544;28;21313;-75
2022/05/15 01:13:15;;;;;;;6.85;3.60;;;;;;;19.49;nan;-24359.28;5068246;28;20239;-75
2022/05/15 01:15:43;;;;;;;6.07;4.10;;;;;;;19.86;nan;-24369.56;5101845;27;20186;-75
2022/05/15 01:18:09;;;;;;;5.63;3.78;;;;;;;19.87;nan;-24369.84;5069079;28;20206;-75
2022/05/15 01:20:37;;;;;;;5.40;3.60;;;;;;;19.69;nan;-24364.84;5066818;28;20623;-75
2022/05/15 01:23:03;;;;;;;5.32;3.72;;;;;;;19.74;nan;-24366.38;5066902;28;20217;-75
2022/05/15 01:25:34;;;;;;;5.88;3.40;;;;;;;19.67;nan;-24364.44;5067064;28;20221;-75
2022/05/15 01:28:05;;;;;;;5.75;4.18;;;;;;;19.83;nan;-24368.88;5068728;28;20185;-75
2022/05/15 01:30:32;;;;;;;4.47;3.28;;;;;;;19.56;nan;-24361.22;5069793;28;20516;-75
2022/05/15 01:32:59;;;;;;;5.25;3.85;;;;;;;19.81;nan;-24368.19;5106285;27;20707;-81
2022/05/15 01:35:25;;;;;;;4.60;3.60;;;;;;;19.78;nan;-24367.47;5076618;28;20189;-78
2022/05/15 01:37:58;;;;;;;6.00;4.13;;;;;;;19.80;nan;-24367.91;5070943;28;20299;-78
2022/05/15 01:40:24;;;;;;;5.82;3.60;;;;;;;19.72;nan;-24365.69;5071479;28;20186;-77
2022/05/15 01:42:50;;;;;;;6.65;4.07;;;;;;;19.52;nan;-24360.13;5071739;28;20181;-76
2022/05/15 01:45:16;;;;;;;5.15;3.65;;;;;;;19.63;nan;-24363.16;5068785;28;20178;-74
2022/05/15 01:47:42;;;;;;;5.68;3.95;;;;;;;19.51;nan;-24359.97;5070179;28;20222;-74
2022/05/15 01:50:10;;;;;;;4.30;3.55;;;;;;;19.60;nan;-24362.47;5071451;28;20170;-75
2022/05/15 01:52:36;;;;;;;5.25;3.63;;;;;;;19.58;nan;-24361.91;5067545;28;20181;-75
2022/05/15 01:55:01;;;;;;;5.53;3.63;;;;;;;19.25;nan;-24352.88;5066355;28;20228;-75
2022/05/15 01:57:27;;;;;;;5.13;3.88;;;;;;;19.21;nan;-24351.63;5068809;28;20209;-75
2022/05/15 01:59:52;;;;;;;13.48;3.80;;;;;;;19.24;nan;-24352.47;5070085;28;20197;-75
2022/05/15 02:02:18;;;;;;;5.10;3.67;;;;;;;19.42;nan;-24357.47;5070246;28;20613;-75
2022/05/15 02:04:43;;;;;;;5.22;3.83;;;;;;;19.37;nan;-24356.06;5072425;28;20185;-76
2022/05/15 02:07:09;;;;;;;6.30;4.05;;;;;;;19.36;nan;-24355.94;5068295;28;20182;-76
2022/05/15 02:09:34;;;;;;;5.57;3.83;;;;;;;19.44;nan;-24357.88;5068516;28;20182;-76
2022/05/15 02:12:00;;;;;;;5.93;4.15;;;;;;;19.37;nan;-24356.22;5071129;28;20271;-76
2022/05/15 02:14:25;;;;;;;5.40;3.92;;;;;;;19.50;nan;-24359.69;5070367;28;20667;-76
2022/05/15 02:16:51;;;;;;;5.32;3.72;;;;;;;19.04;nan;-24346.91;5068400;28;20707;-76
2022/05/15 02:19:17;;;;;;;7.55;3.80;;;;;;;19.46;nan;-24358.59;5071247;28;20182;-76
2022/05/15 02:21:44;;;;;;;5.43;3.90;;;;;;;19.15;nan;-24350.09;5101024;27;20215;-76
2022/05/15 02:24:09;;;;;;;6.88;4.30;;;;;;;19.30;nan;-24354.28;5070238;28;20166;-76
2022/05/15 02:26:35;;;;;;;6.53;4.00;;;;;;;19.12;nan;-24349.25;5069119;28;20554;-76
2022/05/15 02:29:01;;;;;;;4.95;3.80;;;;;;;19.18;nan;-24350.94;5071420;28;20593;-76
2022/05/15 02:31:26;;;;;;;5.55;3.58;;;;;;;19.04;nan;-24347.03;5067079;28;20181;-77
2022/05/15 02:33:51;;;;;;;5.22;3.65;;;;;;;19.16;nan;-24350.38;5066294;28;20180;-76
2022/05/15 02:36:17;;;;;;;6.05;3.92;;;;;;;18.93;nan;-24343.97;5068582;28;21684;-76
2022/05/15 02:38:42;;;;;;;6.20;3.97;;;;;;;18.98;nan;-24345.38;5065853;28;20309;-76
2022/05/15 02:41:08;;;;;;;5.28;3.42;;;;;;;18.94;nan;-24344.38;5068499;28;20182;-76
2022/05/15 02:43:33;;;;;;;5.20;3.60;;;;;;;19.17;nan;-24350.66;5067159;28;20178;-76
2022/05/15 02:45:59;;;;;;;6.15;3.50;;;;;;;18.79;nan;-24340.22;5068649;28;20653;-76
2022/05/15 02:51:09;;;;;;;4.78;3.63;;;;;;;18.92;nan;-24343.69;5069188;28;20682;-76
2022/05/15 02:53:40;;;;;;;7.07;3.60;;;;;;;18.51;nan;-24332.56;5067568;28;20229;-75
2022/05/15 02:56:10;;;;;;;4.40;3.67;;;;;;;18.83;nan;-24341.19;5067876;28;20230;-75
2022/05/15 02:58:36;;;;;;;6.35;4.35;;;;;;;18.57;nan;-24333.94;5066599;28;20205;-75
2022/05/15 03:01:01;;;;;;;5.03;3.92;;;;;;;18.77;nan;-24339.53;5072637;28;20550;-75
2022/05/15 03:03:27;;;;;;;6.18;4.32;;;;;;;18.72;nan;-24338.13;5071584;28;20190;-76
2022/05/15 03:05:52;;;;;;;5.50;3.92;;;;;;;18.79;nan;-24340.22;5071227;28;20230;-76
2022/05/15 03:08:18;;;;;;;5.32;3.72;;;;;;;18.85;nan;-24341.75;5067985;28;20339;-76
2022/05/15 03:10:44;;;;;;;8.02;4.03;;;;;;;18.75;nan;-24338.97;5069588;28;20185;-76
2022/05/15 03:13:09;;;;;;;5.95;4.10;;;;;;;18.78;nan;-24339.94;5070881;28;20291;-76
2022/05/15 03:15:34;;;;;;;7.35;4.07;;;;;;;18.89;nan;-24342.84;5073558;28;20233;-76
2022/05/15 03:18:00;;;;;;;5.82;3.95;;;;;;;18.95;nan;-24344.53;5071396;28;20270;-76
2022/05/15 03:20:27;;;;;;;5.10;3.80;;;;;;;19.16;nan;-24350.22;5072353;28;20640;-76
2022/05/15 03:22:56;;;;;;;5.65;4.18;;;;;;;19.23;nan;-24352.19;5070384;28;20181;-77
2022/05/15 03:25:22;;;;;;;6.53;4.38;;;;;;;19.39;nan;-24356.78;5073345;28;20686;-75
2022/05/15 03:27:47;;;;;;;6.20;3.85;;;;;;;19.42;nan;-24357.47;5072815;28;20177;-75
2022/05/15 03:30:14;;;;;;;7.30;4.50;;;;;;;19.54;nan;-24360.66;5071253;28;20608;-75
2022/05/15 03:32:39;;;;;;;6.40;4.20;;;;;;;19.64;nan;-24363.44;5070722;28;20273;-75
2022/05/15 03:35:07;;;;;;;6.13;4.00;;;;;;;19.76;nan;-24366.78;5069557;28;20636;-76
2022/05/15 03:37:33;;;;;;;6.25;4.18;;;;;;;19.60;nan;-24362.34;5070921;28;20758;-75
2022/05/15 03:39:58;;;;;;;6.30;3.95;;;;;;;19.88;nan;-24369.97;5072323;28;20235;-75
2022/05/15 03:42:26;;;;;;;5.82;4.28;;;;;;;20.47;nan;-24386.25;5071401;28;20206;-75
2022/05/15 03:44:53;;;;;;;5.00;3.72;;;;;;;20.85;nan;-24396.66;5073233;28;20658;-75
2022/05/15 03:47:19;;;;;;;7.10;3.75;;;;;;;22.29;nan;-24436.28;5076365;28;20668;-75
2022/05/15 03:49:45;;;;;;;5.28;3.63;;;;;;;22.81;nan;-24450.38;5069644;28;20211;-75
2022/05/15 03:52:11;;;;;;;5.50;3.85;;;;;;;23.10;nan;-24458.25;5071661;28;20653;-76
2022/05/15 03:54:37;;;;;;;4.88;3.60;;;;;;;23.44;nan;-24467.66;5072730;28;20278;-76
2022/05/15 03:57:04;;;;;;;4.60;3.40;;;;;;;21.98;nan;-24427.84;5071146;28;20224;-76
2022/05/15 03:59:33;;;;;;;4.40;3.50;;;;;;;21.48;nan;-24414.13;5072862;28;20189;-76
2022/05/15 04:02:00;;;;;;;5.18;3.80;;;;;;;21.38;nan;-24411.22;5074101;28;20308;-76
2022/05/15 04:04:26;;;;;;;4.38;3.40;;;;;;;22.66;nan;-24446.38;5073138;28;20647;-76
2022/05/15 04:06:52;;;;;;;6.35;3.97;;;;;;;23.90;nan;-24480.09;5072123;28;20173;-76
2022/05/15 04:09:17;;;;;;;7.40;3.50;;;;;;;25.44;nan;-24522.25;5073843;28;20189;-76
2022/05/15 04:11:43;;;;;;;4.68;3.42;;;;;;;24.74;nan;-24502.97;5069676;28;20189;-76
2022/05/15 04:14:09;;;;;;;6.20;3.30;;;;;;;25.05;nan;-24511.50;5069686;28;20204;-76
2022/05/15 04:16:35;;;;;;;4.80;3.55;;;;;;;25.33;nan;-24519.09;5068406;28;20213;-76
2022/05/15 04:19:01;;;;;;;4.60;3.65;;;;;;;25.42;nan;-24521.69;5071816;28;20565;-74
2022/05/15 04:21:28;;;;;;;5.05;3.60;;;;;;;26.07;nan;-24539.31;5078948;28;20238;-74
2022/05/15 04:23:53;;;;;;;5.78;3.60;;;;;;;26.20;nan;-24542.88;5076311;28;20630;-76
2022/05/15 04:26:19;;;;;;;4.47;3.25;;;;;;;26.27;nan;-24544.78;5071046;28;20195;-75
2022/05/15 04:28:45;;;;;;;4.63;3.80;;;;;;;26.68;nan;-24555.78;5066919;28;20181;-76
2022/05/15 04:31:10;;;;;;;4.82;3.30;;;;;;;26.31;nan;-24545.91;5067451;28;20193;-73
2022/05/15 04:33:36;;;;;;;5.43;3.63;;;;;;;26.69;nan;-24556.19;5066963;28;20311;-79
2022/05/15 04:36:02;;;;;;;4.53;3.22;;;;;;;26.18;nan;-24542.31;5067265;28;20194;-79
2022/05/15 04:38:28;;;;;;;5.45;3.60;;;;;;;25.44;nan;-24522.09;5076074;28;20240;-78
2022/05/15 04:40:53;;;;;;;5.05;3.50;;;;;;;25.87;nan;-24533.94;5103263;27;20228;-78
2022/05/15 04:43:19;;;;;;;6.80;3.42;;;;;;;24.68;nan;-24501.31;5068310;28;20644;-78
2022/05/15 04:45:45;;;;;;;5.15;3.50;;;;;;;25.22;nan;-24516.19;5068538;28;20192;-78
2022/05/15 04:48:11;;;;;;;6.40;3.38;;;;;;;24.63;nan;-24500.22;5067277;28;20861;-76
2022/05/15 04:50:37;;;;;;;4.47;3.42;;;;;;;25.60;nan;-24526.50;5066656;28;20185;-77
2022/05/15 04:53:05;;;;;;;4.97;3.65;;;;;;;25.68;nan;-24528.72;5066913;28;20190;-76
2022/05/15 04:55:31;;;;;;;4.72;3.35;;;;;;;25.41;nan;-24521.41;5068806;28;20258;-77
2022/05/15 04:57:56;;;;;;;4.70;3.53;;;;;;;25.37;nan;-24520.19;5070648;28;20713;-75
2022/05/15 05:00:25;;;;;;;5.78;3.60;;;;;;;24.72;nan;-24502.56;5069765;28;20184;-75
2022/05/15 05:02:51;;;;;;;4.45;3.70;;;;;;;23.78;nan;-24477.03;5066661;28;20199;-75
2022/05/15 05:05:17;;;;;;;5.85;3.72;;;;;;;22.70;nan;-24447.34;5070963;28;20186;-75
2022/05/15 05:07:42;;;;;;;5.68;3.83;;;;;;;22.63;nan;-24445.41;5067981;28;20726;-75
2022/05/15 05:10:10;;;;;;;5.22;3.75;;;;;;;22.66;nan;-24446.38;5068971;28;20648;-67
2022/05/15 05:12:36;;;;;;;5.30;3.90;;;;;;;23.34;nan;-24464.91;5065163;28;20185;-68
2022/05/15 05:15:06;;;;;;;5.57;3.78;;;;;;;23.63;nan;-24472.78;5100801;27;20216;-70
2022/05/15 05:17:32;;;;;;;6.50;3.60;;;;;;;24.10;nan;-24485.75;5064516;28;20197;-68
2022/05/15 05:19:57;;;;;;;5.57;4.03;;;;;;;24.18;nan;-24487.94;5064010;28;21620;-67
2022/05/15 05:22:22;;;;;;;7.60;4.15;;;;;;;24.82;nan;-24505.19;5065196;28;20186;-68
2022/05/15 05:24:48;;;;;;;5.15;3.90;;;;;;;25.02;nan;-24510.69;5063396;28;20190;-60
2022/05/15 05:27:13;;;;;;;6.30;4.07;;;;;;;24.61;nan;-24499.66;5062332;28;20166;-59
2022/05/15 05:29:39;;;;;;;5.55;3.70;;;;;;;22.01;nan;-24428.66;5063067;28;20182;-58
2022/05/15 05:32:05;;;;;;;6.55;3.90;;;;;;;24.54;nan;-24497.59;5062375;28;20610;-59
2022/05/15 05:34:30;;;;;;;8.88;3.83;;;;;;;24.04;nan;-24483.94;5063999;28;20643;-58
2022/05/15 05:36:56;;;;;;;4.90;3.65;;;;;;;24.17;nan;-24487.53;5065270;28;20243;-59
2022/05/15 05:39:21;;;;;;;4.78;3.35;;;;;;;23.72;nan;-24475.25;5070075;28;20220;-65
2022/05/15 05:41:47;;;;;;;4.35;3.60;;;;;;;23.45;nan;-24467.94;5068822;28;20203;-60
2022/05/15 05:44:13;;;;;;;5.03;3.70;;;;;;;23.77;nan;-24476.78;5065638;28;20181;-58
2022/05/15 05:46:39;;;;;;;5.10;3.67;;;;;;;23.70;nan;-24474.84;5064440;28;20177;-59
2022/05/15 05:49:04;;;;;;;4.28;3.38;;;;;;;23.43;nan;-24467.38;5065565;28;20194;-58
2022/05/15 05:51:30;;;;;;;5.00;3.72;;;;;;;23.82;nan;-24478.00;5065648;28;20223;-60
2022/05/15 05:53:55;;;;;;;5.22;3.53;;;;;;;24.00;nan;-24482.84;5072252;28;20708;-58
2022/05/15 05:56:21;;;;;;;4.57;3.47;;;;;;;23.73;nan;-24475.66;5069295;28;20178;-58
2022/05/15 05:58:46;;;;;;;4.95;3.67;;;;;;;23.40;nan;-24466.41;5068419;28;20205;-59
2022/05/15 06:01:13;;;;;;;4.90;3.20;;;;;;;23.31;nan;-24464.06;5067074;28;20683;-58
2022/05/15 06:06:24;;;;;;;4.45;3.42;;;;;;;23.52;nan;-24469.88;5066381;28;21566;-59
2022/05/15 06:08:49;;;;;;;4.75;3.53;;;;;;;23.58;nan;-24471.38;5064002;28;20185;-59
2022/05/15 06:11:14;;;;;;;5.65;3.53;;;;;;;23.59;nan;-24471.81;5063227;28;20186;-58
2022/05/15 06:13:40;;;;;;;4.40;3.35;;;;;;;23.64;nan;-24473.03;5067085;28;20339;-58
2022/05/15 06:16:08;;;;;;;4.55;3.30;;;;;;;24.05;nan;-24484.22;5064480;28;20188;-58
2022/05/15 06:18:34;;;;;;;4.93;3.45;;;;;;;23.65;nan;-24473.47;5068868;28;20201;-59
2022/05/15 06:21:00;;;;;;;4.35;3.28;;;;;;;24.01;nan;-24483.13;5067944;28;20644;-58
2022/05/15 06:23:25;;;;;;;6.20;3.13;;;;;;;24.36;nan;-24492.78;5066116;28;20239;-58
2022/05/15 06:25:51;;;;;;;4.30;3.25;;;;;;;23.68;nan;-24474.28;5068779;28;20184;-58
2022/05/15 06:28:16;;;;;;;3.80;2.90;;;;;;;24.38;nan;-24493.31;5073256;28;20258;-58
2022/05/15 06:30:42;;;;;;;4.05;3.30;;;;;;;24.33;nan;-24491.81;5078204;28;20714;-59
2022/05/15 06:33:08;;;;;;;3.60;2.95;;;;;;;24.60;nan;-24499.38;5075778;28;20636;-59
2022/05/15 06:35:34;;;;;;;4.18;3.05;;;;;;;24.48;nan;-24496.09;5076457;28;20181;-58
2022/05/15 06:38:04;;;;;;;4.47;3.10;;;;;;;24.32;nan;-24491.69;5080454;28;20577;-58
2022/05/15 06:40:30;;;;;;;3.90;3.47;;;;;;;24.32;nan;-24491.69;5083113;28;20256;-59
2022/05/15 06:42:57;;;;;;;3.70;3.05;;;;;;;23.95;nan;-24481.47;5081105;28;20277;-58
2022/05/15 06:45:23;;;;;;;4.55;3.38;;;;;;;24.15;nan;-24486.97;5081883;28;20268;-59
2022/05/15 06:47:49;;;;;;;4.78;3.35;;;;;;;23.84;nan;-24478.44;5074443;28;20188;-58
2022/05/15 06:50:15;;;;;;;4.53;3.38;;;;;;;24.26;nan;-24490.03;5067296;28;20181;-58
2022/05/15 06:52:40;;;;;;;4.57;3.03;;;;;;;24.26;nan;-24490.03;5075114;28;20202;-60
2022/05/15 06:55:09;;;;;;;3.88;3.13;;;;;;;24.61;nan;-24499.66;5068585;28;20312;-59
2022/05/15 06:57:35;;;;;;;4.72;3.28;;;;;;;24.76;nan;-24503.66;5067661;28;20207;-59
2022/05/15 07:00:05;;;;;;;5.00;3.83;;;;;;;24.63;nan;-24500.06;5066806;28;20166;-60
2022/05/15 07:02:31;;;;;;;7.78;3.60;;;;;;;24.81;nan;-24505.03;5069171;28;20216;-60
2022/05/15 07:04:57;;;;;;;6.10;3.50;;;;;;;24.55;nan;-24498.00;5065051;28;20196;-59
2022/05/15 07:07:23;;;;;;;5.78;3.13;;;;;;;24.55;nan;-24497.88;5066757;28;20174;-59
2022/05/15 07:09:49;;;;;;;4.40;2.97;;;;;;;24.81;nan;-24504.91;5068347;28;20192;-59
2022/05/15 07:12:15;;;;;;;5.25;3.20;;;;;;;24.64;nan;-24500.50;5068770;28;20185;-59
2022/05/15 07:14:40;;;;;;;4.53;2.83;;;;;;;24.28;nan;-24490.56;5067789;28;20597;-58
2022/05/15 07:17:06;;;;;;;4.63;3.22;;;;;;;24.87;nan;-24506.56;5072486;28;20206;-59
2022/05/15 07:19:31;;;;;;;4.05;2.60;;;;;;;24.77;nan;-24503.94;5069262;28;20189;-59
2022/05/15 07:21:57;;;;;;;4.85;3.00;;;;;;;24.82;nan;-24505.31;5069083;28;20200;-59
2022/05/15 07:24:22;;;;;;;3.63;2.60;;;;;;;24.84;nan;-24505.88;5066693;28;20192;-59
2022/05/15 07:26:49;;;;;;;3.95;2.60;;;;;;;24.86;nan;-24506.28;5067924;28;20667;-59
2022/05/15 07:29:15;;;;;;;3.28;2.40;;;;;;;24.82;nan;-24505.19;5069063;28;20193;-58
2022/05/15 07:31:42;;;;;;;3.03;2.67;;;;;;;25.21;nan;-24515.91;5068822;28;21088;-58
2022/05/15 07:34:07;;;;;;;3.25;2.67;;;;;;;25.27;nan;-24517.56;5071863;28;20212;-60
2022/05/15 07:36:33;;;;;;;3.25;2.30;;;;;;;25.01;nan;-24510.41;5070513;28;20177;-61
2022/05/15 07:38:59;;;;;;;3.63;2.88;;;;;;;25.28;nan;-24517.84;5067561;28;20213;-60
2022/05/15 07:41:25;;;;;;;3.97;2.65;;;;;;;24.86;nan;-24506.41;5069061;28;20177;-59
2022/05/15 07:43:50;;;;;;;3.00;2.58;;;;;;;24.89;nan;-24507.25;5067992;28;20186;-60
2022/05/15 07:46:16;;;;;;;4.25;2.60;;;;;;;25.02;nan;-24510.69;5069400;28;20232;-61
2022/05/15 07:48:41;;;;;;;2.97;2.50;;;;;;;25.13;nan;-24513.72;5071240;28;20185;-60
2022/05/15 07:51:07;;;;;;;3.50;2.60;;;;;;;25.18;nan;-24514.94;5070606;28;20165;-60
2022/05/15 07:53:32;;;;;;;3.78;2.50;;;;;;;25.23;nan;-24516.34;5074490;28;20214;-59
2022/05/15 07:56:09;;;;;;;3.42;2.60;;;;;;;25.23;nan;-24516.34;5075370;28;20209;-58
2022/05/15 07:58:36;;;;;;;3.78;2.70;;;;;;;25.43;nan;-24521.97;5075485;28;20201;-60
2022/05/15 08:01:04;;;;;;;3.83;2.50;;;;;;;25.61;nan;-24526.66;5076701;28;20173;-58
2022/05/15 08:03:38;;;;;;;2.97;2.33;;;;;;;25.88;nan;-24534.06;5076151;28;20275;-59
2022/05/15 08:08:48;;;;;;;3.72;2.40;;;;;;;25.80;nan;-24532.00;5072743;28;20621;-60
2022/05/15 08:11:14;;;;;;;3.63;2.78;;;;;;;25.93;nan;-24535.59;5074924;28;20645;-60
2022/05/15 08:13:41;;;;;;;4.40;2.50;;;;;;;25.91;nan;-24534.91;5078183;28;20217;-60
2022/05/15 08:16:06;;;;;;;4.07;2.40;;;;;;;26.21;nan;-24543.00;5076561;28;20223;-60
2022/05/15 08:24:01;;;;;;;2.67;2.33;;;;;;;26.08;nan;-24539.44;5079012;28;20212;-59
2022/05/15 08:26:28;;;;;;;3.42;2.53;;;;;;;26.08;nan;-24539.44;5074905;28;20180;-58
2022/05/15 08:28:55;;;;;;;4.47;2.60;;;;;;;26.03;nan;-24538.19;5075713;28;20268;-59
2022/05/15 08:31:24;;;;;;;4.07;2.47;;;;;;;26.31;nan;-24545.91;5073589;28;20181;-60
2022/05/15 08:33:50;;;;;;;3.15;2.50;;;;;;;26.36;nan;-24547.28;5073984;28;20182;-59
2022/05/15 08:36:16;;;;;;;4.07;2.35;;;;;;;26.53;nan;-24551.81;5073817;28;20180;-59
2022/05/15 08:38:43;;;;;;;2.70;2.40;;;;;;;26.37;nan;-24547.41;5078287;28;20220;-59
2022/05/15 08:41:17;;;;;;;3.47;2.47;;;;;;;26.76;nan;-24558.13;5077331;28;20272;-59
2022/05/15 08:43:47;;;;;;;3.65;2.30;;;;;;;26.62;nan;-24554.13;5076345;28;20679;-61
2022/05/15 08:46:31;;;;;;;3.03;2.40;;;;;;;26.89;nan;-24561.41;5075310;28;20626;-59
2022/05/15 08:49:06;;;;;;;2.75;2.20;;;;;;;27.00;nan;-24564.44;5077952;28;20169;-59
2022/05/15 08:51:33;;;;;;;2.65;2.25;;;;;;;26.97;nan;-24563.75;5085207;28;20216;-60
2022/05/15 08:54:02;;;;;;;2.40;2.15;;;;;;;26.74;nan;-24557.44;5072206;28;20232;-60
2022/05/15 08:56:33;;;;;;;3.13;2.45;;;;;;;26.97;nan;-24563.75;5076383;28;20181;-58
2022/05/15 08:59:02;;;;;;;2.45;2.25;;;;;;;27.18;nan;-24569.50;5074279;28;20704;-59
2022/05/15 09:01:28;;;;;;;3.35;2.30;;;;;;;27.24;nan;-24571.00;5075623;28;20222;-59
2022/05/15 09:03:54;;;;;;;2.47;2.13;;;;;;;27.16;nan;-24568.94;5074882;28;20208;-59
2022/05/15 09:06:25;;;;;;;2.40;2.03;;;;;;;27.40;nan;-24575.25;5075095;28;20230;-58
2022/05/15 09:09:23;;;;;;;2.20;1.90;;;;;;;27.36;nan;-24574.16;5070986;28;20627;-58
2022/05/15 09:12:16;;;;;;;5.20;2.15;;;;;;;27.46;nan;-24576.91;5071322;28;20213;-58
2022/05/15 09:14:57;;;;;;;3.33;2.35;;;;;;;27.28;nan;-24571.97;5072178;28;20700;-60
2022/05/15 09:17:44;;;;;;;3.30;2.35;;;;;;;27.77;nan;-24585.41;5071323;28;20204;-60
2022/05/15 09:20:20;;;;;;;2.30;2.10;;;;;;;27.70;nan;-24583.47;5071890;28;20185;-60
2022/05/15 09:22:53;;;;;;;3.58;2.40;;;;;;;27.95;nan;-24590.34;5071642;28;20182;-59
2022/05/15 09:25:22;;;;;;;2.53;2.13;;;;;;;28.10;nan;-24594.31;5075560;28;20187;-60
2022/05/15 09:28:08;;;;;;;3.20;2.20;;;;;;;28.06;nan;-24593.34;5072441;28;20180;-59
2022/05/15 09:30:42;;;;;;;2.58;2.08;;;;;;;28.01;nan;-24591.97;5074748;28;20188;-60
2022/05/15 09:33:24;;;;;;;3.28;2.03;;;;;;;28.23;nan;-24597.88;5072575;28;20704;-60
2022/05/15 09:35:50;;;;;;;1.92;1.73;;;;;;;27.73;nan;-24584.31;5072208;28;20660;-58
2022/05/15 09:38:28;;;;;;;3.67;2.10;;;;;;;27.33;nan;-24573.47;5077217;28;20209;-59
2022/05/15 09:43:56;;;;;;;2.88;2.10;;;;;;;27.83;nan;-24586.91;5071375;28;20276;-58
2022/05/15 09:46:24;;;;;;;2.80;2.10;;;;;;;27.90;nan;-24588.97;5072196;28;20370;-58
2022/05/15 09:49:13;;;;;;;3.05;2.08;;;;;;;27.81;nan;-24586.50;5073969;28;20170;-59
2022/05/15 09:51:53;;;;;;;3.63;2.13;;;;;;;28.16;nan;-24595.94;5072238;28;20190;-61
2022/05/15 09:54:43;;;;;;;8.05;2.05;;;;;;;28.18;nan;-24596.50;5071765;28;20218;-59
2022/05/15 09:57:26;;;;;;;4.18;2.17;;;;;;;28.39;nan;-24602.25;5070627;28;20217;-59
2022/05/15 09:59:58;;;;;;;2.30;2.10;;;;;;;28.39;nan;-24602.25;5072515;28;20165;-58
2022/05/15 10:02:42;;;;;;;2.45;1.90;;;;;;;28.23;nan;-24597.72;5071913;28;20174;-58
2022/05/15 10:05:21;;;;;;;2.05;1.85;;;;;;;28.14;nan;-24595.25;5072574;28;20262;-58
2022/05/15 10:08:05;;;;;;;2.05;1.85;;;;;;;28.43;nan;-24603.19;5072182;28;20201;-58
2022/05/15 10:10:38;;;;;;;2.08;1.80;;;;;;;28.49;nan;-24604.84;5071863;28;20197;-58
2022/05/15 10:13:09;;;;;;;1.85;1.65;;;;;;;27.87;nan;-24588.13;5071540;28;20227;-58
2022/05/15 10:15:40;;;;;;;2.00;1.80;;;;;;;28.46;nan;-24604.03;5072449;28;20211;-59
2022/05/15 10:18:10;;;;;;;1.80;1.70;;;;;;;28.25;nan;-24598.28;5071613;28;20603;-59
2022/05/15 10:20:40;;;;;;;2.53;2.10;;;;;;;28.78;nan;-24612.78;5077611;28;20193;-60
2022/05/15 10:23:14;;;;;;;2.40;1.83;;;;;;;28.66;nan;-24609.34;5071619;28;20537;-58
2022/05/15 10:25:48;;;;;;;2.88;2.00;;;;;;;29.04;nan;-24619.75;5076040;28;20173;-58
2022/05/15 10:28:16;;;;;;;1.67;1.50;;;;;;;29.18;nan;-24623.44;5072328;28;20188;-60
2022/05/15 10:31:01;;;;;;;2.40;1.90;;;;;;;29.07;nan;-24620.56;5070615;28;20174;-60
2022/05/15 10:33:31;;;;;;;2.72;2.10;;;;;;;28.92;nan;-24616.59;5076362;28;20683;-60
2022/05/15 10:36:11;;;;;;;1.65;1.50;;;;;;;28.89;nan;-24615.78;5074872;28;20260;-60
2022/05/15 10:39:08;;;;;;;2.20;1.83;;;;;;;28.78;nan;-24612.78;5072998;28;20208;-61
2022/05/15 10:42:04;;;;;;;2.10;1.90;;;;;;;28.57;nan;-24607.03;5070516;28;20212;-59
2022/05/15 10:44:47;;;;;;;1.70;1.55;;;;;;;28.68;nan;-24609.91;5074359;28;20620;-59
2022/05/15 10:47:26;;;;;;;2.20;1.80;;;;;;;28.77;nan;-24612.38;5074638;28;20206;-61
2022/05/15 10:49:54;;;;;;;4.75;1.80;;;;;;;29.05;nan;-24620.00;5067597;28;20664;-59
2022/05/15 10:52:54;;;;;;;2.95;1.70;;;;;;;29.18;nan;-24623.44;5071115;28;20182;-58
2022/05/15 10:58:40;;;;;;;2.15;1.60;;;;;;;29.10;nan;-24621.25;5070658;28;20242;-58
2022/05/15 11:01:12;;;;;;;3.28;1.77;;;;;;;29.24;nan;-24625.06;5072770;28;20187;-59
2022/05/15 11:03:53;;;;;;;2.22;1.65;;;;;;;29.38;nan;-24628.91;5071125;28;20205;-60
2022/05/15 11:06:43;;;;;;;4.22;1.80;;;;;;;28.85;nan;-24614.69;5071051;28;20189;-59
2022/05/15 11:09:56;;;;;;;2.53;1.70;;;;;;;29.22;nan;-24624.66;5071231;28;20623;-60
2022/05/15 11:12:40;;;;;;;2.17;1.88;;;;;;;29.19;nan;-24623.84;5061722;28;20637;-59
2022/05/15 11:15:05;;;;;;;3.17;1.77;;;;;;;29.35;nan;-24628.06;5072392;28;20188;-59
2022/05/15 11:17:39;;;;;;;1.58;1.48;;;;;;;28.94;nan;-24617.16;5073768;28;20193;-58
2022/05/15 11:20:10;;;;;;;2.42;1.70;;;;;;;28.69;nan;-24610.16;5075351;28;20189;-60
2022/05/15 11:22:47;;;;;;;2.28;1.80;;;;;;;28.99;nan;-24618.50;5077106;28;20256;-59
2022/05/15 11:25:32;;;;;;;2.17;1.55;;;;;;;29.22;nan;-24624.53;5080935;28;20250;-59
2022/05/15 11:28:20;;;;;;;3.53;1.88;;;;;;;29.52;nan;-24632.59;5082685;28;20676;-60
2022/05/15 11:30:48;;;;;;;2.00;1.80;;;;;;;29.22;nan;-24624.53;5078846;28;20189;-59
2022/05/15 11:33:48;;;;;;;2.50;1.85;;;;;;;28.98;nan;-24618.25;5081307;28;20165;-60
2022/05/15 11:36:26;;;;;;;3.83;1.90;;;;;;;29.04;nan;-24619.59;5078995;28;20178;-58
2022/05/15 11:39:15;;;;;;;2.00;1.80;;;;;;;29.38;nan;-24628.91;5080429;28;20231;-61
2022/05/15 11:41:44;;;;;;;1.95;1.70;;;;;;;29.28;nan;-24626.28;5075667;28;20193;-61
2022/05/15 11:44:31;;;;;;;1.90;1.70;;;;;;;28.98;nan;-24618.25;5081424;28;20185;-61
2022/05/15 11:47:00;;;;;;;2.20;1.70;;;;;;;29.09;nan;-24620.97;5081000;28;20187;-61
2022/05/15 11:49:36;;;;;;;2.17;1.92;;;;;;;29.44;nan;-24630.41;5080227;28;20189;-60
2022/05/15 11:52:08;;;;;;;2.65;2.10;;;;;;;29.65;nan;-24636.25;5084334;28;20184;-61
2022/05/15 11:54:39;;;;;;;2.80;2.10;;;;;;;29.27;nan;-24625.88;5078297;28;20265;-60
2022/05/15 11:57:08;;;;;;;3.33;2.30;;;;;;;29.76;nan;-24639.28;5079753;28;20595;-60
2022/05/15 11:59:38;;;;;;;3.08;1.98;;;;;;;30.10;nan;-24648.28;5078910;28;20190;-60
2022/05/15 12:02:42;;;;;;;2.90;2.20;;;;;;;30.32;nan;-24654.28;5078149;28;20181;-65
2022/05/15 12:05:31;;;;;;;2.13;1.88;;;;;;;29.80;nan;-24640.34;5074844;28;20188;-61
2022/05/15 12:08:22;;;;;;;2.03;1.83;;;;;;;30.10;nan;-24648.28;4987023;28;21529;-60
2022/05/15 12:10:48;;;;;;;2.92;2.08;;;;;;;29.87;nan;-24642.00;5075213;28;20626;-61
2022/05/15 12:13:32;;;;;;;2.42;1.80;;;;;;;29.98;nan;-24645.00;5082866;28;20173;-59